Adger, AL

1:56 PM CDT on September 03, 2015 (GMT -0500)
Lake View North | | Change Station
CLOSE
Current Station
Personal Weather Station
Location: Lake View, AL
Elevation: 565 ft
Nearby Weather Stations

Elev 565 ft 33.29 °N, 87.14 °W | Updated 8 seconds ago

Partly Cloudy
Partly Cloudy
88.2 °F
Feels Like 93 °F
N
1.6
Wind Variable Wind from WSW
Gusts 4.0 mph

Today
High -- | Low -- °F
--% Chance of Precip.
Yesterday
High -- | Low -- °F
Precip. -- in
6:24 AM 7:11 PM
Waning Gibbous, 68% visible
Pressure 29.97 in
Visibility 10.0 miles
Clouds Scattered Clouds 4700 ft
Scattered Clouds 15000 ft
Heat Index 93 °F
Dew Point 72 °F
Humidity 53%
Rainfall 0.00 in
Snow Depth Not available.
UV 8 out of 12
Pollen 8.80 out of 12
Air Quality Not available.
Flu Activity Not available.
METAR KBHM 031853Z VRB05KT 10SM SCT047 SCT150 32/18 A3000 RMK AO2 SLP149 T03170183
Pressure 29.97 in
Visibility 10.0 miles
Clouds Scattered Clouds 4700 ft
Scattered Clouds 15000 ft
Heat Index 93 °F
Dew Point 72 °F
Humidity 53%
Rainfall 0.00 in
Snow Depth Not available.
UV 8 out of 12
Pollen 8.80 out of 12
Air Quality Not available.
Flu Activity Not available.
METAR KBHM 031853Z VRB05KT 10SM SCT047 SCT150 32/18 A3000 RMK AO2 SLP149 T03170183

10-Day Weather Forecast

×

Almanac

Astronomy

Sep. 03, 2015 Rise Set
Actual Time
Civil Twilight
Nautical Twilight
Astronomical Twilight
Moon
Length of Visible Light
Length of Day
Tomorrow will be .
, % of the Moon is Illuminated

Today's Extremes

State Highs State Lows

Community

WunderPhotos

Upload Photos

1,852,001 photos uploaded!

WunderBlogs® & News

Nearby

Air Quality

  Air Quality AQ Index Pollutant
Not available.

Snow Depth

Station Depth Elevation

Earthquake Activity

City Distance Mag. Time & Date
Minimum magnitude displayed is 2.5.

Coastal Water Temperatures

Place Temperature

Stations

Nearby Weather Stations

Station Location Temp. Windchill Dew Point Humidity Wind Precip. Elev Updated Type